createdAt,value
2023-03-18T00:00:32.737Z,54.60
2023-03-18T00:03:00.434Z,54.60
2023-03-18T00:05:27.768Z,54.60
2023-03-18T00:07:54.965Z,54.60
2023-03-18T00:10:22.171Z,54.50
2023-03-18T00:12:49.759Z,54.60
2023-03-18T00:15:18.209Z,54.70
2023-03-18T00:17:46.705Z,54.80
2023-03-18T00:20:16.997Z,54.70
2023-03-18T00:22:45.366Z,54.60
2023-03-18T00:25:14.014Z,54.60
2023-03-18T00:27:41.706Z,54.60
2023-03-18T00:30:09.893Z,54.60
2023-03-18T00:32:38.711Z,54.60
2023-03-18T00:35:06.459Z,54.50
2023-03-18T00:37:35.660Z,54.60
2023-03-18T00:40:10.213Z,54.60
2023-03-18T00:42:42.607Z,54.70
2023-03-18T00:45:11.818Z,54.70
2023-03-18T00:47:39.696Z,54.80
2023-03-18T00:50:08.476Z,54.90
2023-03-18T00:52:37.310Z,54.90
2023-03-18T00:55:06.789Z,54.80
2023-03-18T00:57:35.362Z,55.00
2023-03-18T01:00:07.140Z,54.90
2023-03-18T01:02:34.806Z,55.00
2023-03-18T01:05:03.797Z,55.10
2023-03-18T01:07:31.174Z,55.00
2023-03-18T01:09:58.633Z,55.00
2023-03-18T01:12:25.865Z,55.00
2023-03-18T01:14:53.660Z,55.00
2023-03-18T01:17:21.062Z,55.00
2023-03-18T01:19:48.720Z,55.70
2023-03-18T01:22:16.342Z,55.10
2023-03-18T01:24:47.481Z,55.30
2023-03-18T01:27:15.868Z,55.40
2023-03-18T01:29:46.431Z,55.40
2023-03-18T01:32:18.650Z,55.50
2023-03-18T01:34:46.087Z,55.50
2023-03-18T01:37:13.699Z,55.60
2023-03-18T01:39:43.649Z,55.70
2023-03-18T01:42:22.067Z,55.80
2023-03-18T01:44:49.449Z,55.80
2023-03-18T01:47:17.365Z,55.80
2023-03-18T01:49:52.295Z,55.80
2023-03-18T01:52:24.726Z,55.90
2023-03-18T01:54:57.936Z,55.90
2023-03-18T01:57:26.083Z,56.00
2023-03-18T01:59:55.170Z,56.00
2023-03-18T02:02:24.087Z,56.10
2023-03-18T02:04:53.752Z,56.00
2023-03-18T02:07:27.878Z,55.90
2023-03-18T02:09:59.786Z,55.80
2023-03-18T02:12:36.619Z,55.90
2023-03-18T02:15:09.058Z,56.10
2023-03-18T02:17:41.392Z,55.90
2023-03-18T02:20:32.202Z,56.10
2023-03-18T02:23:22.764Z,56.10
2023-03-18T02:25:57.262Z,56.10
2023-03-18T02:28:29.746Z,56.20
2023-03-18T02:31:01.459Z,56.20
2023-03-18T02:33:34.648Z,56.20
2023-03-18T02:36:10.921Z,56.20
2023-03-18T02:38:45.415Z,56.40
2023-03-18T02:41:20.908Z,56.20
2023-03-18T02:43:49.548Z,56.20
2023-03-18T02:46:47.526Z,56.30
2023-03-18T02:49:15.571Z,56.50
2023-03-18T02:51:42.867Z,56.40
2023-03-18T02:54:15.879Z,56.60
2023-03-18T02:56:43.800Z,56.70
2023-03-18T02:59:13.048Z,56.60
2023-03-18T03:01:42.862Z,56.50
2023-03-18T03:04:12.235Z,56.70
2023-03-18T03:06:40.495Z,56.70
2023-03-18T03:09:10.007Z,56.70
2023-03-18T03:11:37.575Z,56.70
2023-03-18T03:14:15.555Z,56.70
2023-03-18T03:16:44.273Z,56.80
2023-03-18T03:19:11.718Z,56.80
2023-03-18T03:21:38.981Z,56.80
2023-03-18T03:24:07.646Z,56.80
2023-03-18T03:26:35.915Z,56.80
2023-03-18T03:29:05.154Z,56.70
2023-03-18T03:31:33.200Z,56.70
2023-03-18T03:34:00.648Z,56.70
2023-03-18T03:36:27.994Z,56.60
2023-03-18T03:38:57.067Z,56.60
2023-03-18T03:41:24.375Z,56.60
2023-03-18T03:43:52.050Z,56.60
2023-03-18T03:46:19.458Z,56.70
2023-03-18T03:48:47.969Z,56.80
2023-03-18T03:51:15.466Z,56.80
2023-03-18T03:53:43.725Z,56.80
2023-03-18T03:56:11.684Z,56.70
2023-03-18T03:58:39.448Z,56.90
2023-03-18T04:01:07.063Z,56.80
2023-03-18T04:03:34.717Z,56.90
2023-03-18T04:06:06.633Z,56.90
2023-03-18T04:08:36.178Z,56.80
2023-03-18T04:11:04.511Z,56.70
2023-03-18T04:13:32.064Z,56.90
2023-03-18T04:16:00.011Z,57.60
2023-03-18T04:18:27.402Z,57.00
2023-03-18T04:20:55.040Z,57.20
2023-03-18T04:23:36.185Z,57.40
2023-03-18T04:26:05.262Z,57.30
2023-03-18T04:28:33.359Z,57.30
2023-03-18T04:31:01.605Z,57.30
2023-03-18T04:33:28.895Z,57.30
2023-03-18T04:35:58.054Z,57.40
2023-03-18T04:38:25.850Z,57.40
2023-03-18T04:40:54.046Z,57.40
2023-03-18T04:43:22.173Z,57.50
2023-03-18T04:45:51.723Z,57.60
2023-03-18T04:48:18.962Z,57.60
2023-03-18T04:50:46.948Z,57.70
2023-03-18T04:53:19.988Z,57.70
2023-03-18T04:55:50.700Z,57.70
2023-03-18T04:58:19.496Z,57.90
2023-03-18T05:00:59.505Z,57.70
2023-03-18T05:03:34.473Z,57.70
2023-03-18T05:06:02.496Z,57.90
2023-03-18T05:08:39.706Z,58.10
2023-03-18T05:11:07.649Z,58.30
2023-03-18T05:13:37.382Z,58.40
2023-03-18T05:16:06.572Z,58.60
2023-03-18T05:18:34.778Z,58.70
2023-03-18T05:21:05.113Z,58.60
2023-03-18T05:23:32.530Z,58.60
2023-03-18T05:26:00.042Z,58.60
2023-03-18T05:28:29.599Z,58.60
2023-03-18T05:31:21.332Z,58.60
2023-03-18T05:33:48.847Z,58.70
2023-03-18T05:36:16.767Z,58.70
2023-03-18T05:38:55.277Z,58.90
2023-03-18T05:41:24.224Z,58.90
2023-03-18T05:43:52.790Z,59.20
2023-03-18T05:46:20.996Z,59.10
2023-03-18T05:48:57.928Z,59.30
2023-03-18T05:51:30.522Z,59.30
2023-03-18T05:53:58.143Z,59.20
2023-03-18T05:56:31.288Z,59.30
2023-03-18T05:59:01.247Z,59.30
2023-03-18T06:01:41.260Z,59.40
2023-03-18T06:04:08.894Z,59.40
2023-03-18T06:06:40.254Z,59.50
2023-03-18T06:09:12.184Z,59.30
2023-03-18T06:11:41.906Z,59.30
2023-03-18T06:14:09.371Z,59.10
2023-03-18T06:16:37.412Z,59.10
2023-03-18T06:19:05.621Z,59.00
2023-03-18T06:21:33.100Z,58.90
2023-03-18T06:24:01.639Z,58.80
2023-03-18T06:26:29.941Z,58.70
2023-03-18T06:28:58.322Z,58.70
2023-03-18T06:31:26.296Z,58.60
2023-03-18T06:33:53.929Z,58.70
2023-03-18T06:36:23.177Z,58.70
2023-03-18T06:38:53.307Z,58.60
2023-03-18T06:41:22.623Z,58.60
2023-03-18T06:44:11.096Z,58.40
2023-03-18T06:46:38.952Z,58.20
2023-03-18T06:49:06.451Z,58.10
2023-03-18T06:51:38.660Z,57.80
2023-03-18T06:54:06.057Z,57.80
2023-03-18T06:56:37.430Z,57.70
2023-03-18T06:59:13.816Z,57.40
2023-03-18T07:01:41.431Z,57.40
2023-03-18T07:04:08.976Z,57.30
2023-03-18T07:06:37.127Z,57.10
2023-03-18T07:09:04.378Z,57.10
2023-03-18T07:11:31.641Z,56.90
2023-03-18T07:14:03.493Z,56.90
2023-03-18T07:16:34.071Z,56.70
2023-03-18T07:19:02.016Z,56.90
2023-03-18T07:21:31.049Z,56.80
2023-03-18T07:23:58.299Z,56.50
2023-03-18T07:26:26.163Z,56.50
2023-03-18T07:28:53.484Z,56.20
2023-03-18T07:31:20.764Z,55.90
2023-03-18T07:33:48.726Z,55.10
2023-03-18T07:36:16.535Z,54.60
2023-03-18T07:38:44.029Z,54.20
2023-03-18T07:41:12.539Z,53.80
2023-03-18T07:43:40.231Z,53.30
2023-03-18T07:46:07.901Z,52.80
2023-03-18T07:48:35.462Z,52.80
2023-03-18T07:51:02.917Z,52.40
2023-03-18T07:53:30.154Z,52.50
2023-03-18T07:55:57.440Z,52.50
2023-03-18T07:58:25.683Z,52.20
2023-03-18T08:00:53.302Z,52.10
2023-03-18T08:03:20.816Z,51.90
2023-03-18T08:05:48.173Z,51.40
2023-03-18T08:08:15.636Z,51.20
2023-03-18T08:10:43.212Z,50.80
2023-03-18T08:13:10.774Z,50.50
2023-03-18T08:15:38.301Z,50.70
2023-03-18T08:18:08.799Z,50.30
2023-03-18T08:20:36.643Z,50.20
2023-03-18T08:23:04.113Z,50.60
2023-03-18T08:25:32.661Z,50.10
2023-03-18T08:28:00.287Z,50.30
2023-03-18T08:30:28.788Z,50.00
2023-03-18T08:32:57.235Z,49.90
2023-03-18T08:35:25.766Z,50.20
2023-03-18T08:37:53.887Z,50.10
2023-03-18T08:40:21.269Z,50.00
2023-03-18T08:42:48.622Z,51.00
2023-03-18T08:45:16.975Z,50.10
2023-03-18T08:47:44.369Z,49.70
2023-03-18T08:50:13.582Z,49.90
2023-03-18T08:52:41.233Z,49.70
2023-03-18T08:55:09.707Z,49.70
2023-03-18T08:57:37.813Z,49.40
2023-03-18T09:00:06.423Z,49.00
2023-03-18T09:02:33.836Z,49.20
2023-03-18T09:05:01.104Z,49.10
2023-03-18T09:07:28.513Z,48.80
2023-03-18T09:09:55.884Z,48.80
2023-03-18T09:12:23.281Z,48.30
2023-03-18T09:14:50.524Z,48.70
2023-03-18T09:17:18.299Z,48.30
2023-03-18T09:19:46.124Z,48.40
2023-03-18T09:22:13.503Z,48.80
2023-03-18T09:24:41.543Z,48.70
2023-03-18T09:27:08.994Z,48.60
2023-03-18T09:29:36.546Z,48.70
2023-03-18T09:32:04.029Z,48.50
2023-03-18T09:34:31.665Z,48.60
2023-03-18T09:36:59.097Z,48.70
2023-03-18T09:39:27.163Z,48.70
2023-03-18T09:42:05.722Z,49.20
2023-03-18T09:44:36.698Z,48.90
2023-03-18T09:47:28.266Z,49.20
2023-03-18T09:50:21.692Z,49.30
2023-03-18T09:53:05.250Z,49.30
2023-03-18T09:55:41.107Z,49.60
2023-03-18T09:58:28.018Z,49.20
2023-03-18T10:01:07.213Z,49.10
2023-03-18T10:03:43.720Z,49.10
2023-03-18T10:06:21.203Z,48.80
2023-03-18T10:09:06.478Z,49.00
2023-03-18T10:11:36.401Z,48.70
2023-03-18T10:14:31.593Z,48.90
2023-03-18T10:17:19.647Z,49.50
2023-03-18T10:19:58.543Z,48.90
2023-03-18T10:22:44.491Z,48.40
2023-03-18T10:25:37.074Z,48.40
2023-03-18T10:28:18.378Z,48.30
2023-03-18T10:31:04.569Z,48.20
2023-03-18T10:33:56.798Z,48.50
2023-03-18T10:36:28.348Z,48.50
2023-03-18T10:38:57.371Z,48.90
2023-03-18T10:41:34.435Z,48.50
2023-03-18T10:44:15.547Z,48.40
2023-03-18T10:46:44.359Z,48.40
2023-03-18T10:49:27.570Z,48.60
2023-03-18T10:52:01.748Z,48.20
2023-03-18T10:54:37.172Z,48.40
2023-03-18T10:57:04.952Z,48.20
2023-03-18T10:59:34.501Z,48.50
2023-03-18T11:02:06.214Z,49.20
2023-03-18T11:04:42.349Z,48.40
2023-03-18T11:07:18.663Z,48.30
2023-03-18T11:09:47.093Z,47.90
2023-03-18T11:12:23.477Z,47.60
2023-03-18T11:14:51.542Z,47.70
2023-03-18T11:17:31.026Z,47.90
2023-03-18T11:20:13.122Z,47.60
2023-03-18T11:22:45.611Z,47.60
2023-03-18T11:25:18.917Z,47.80
2023-03-18T11:27:52.173Z,47.90
2023-03-18T11:30:33.998Z,47.70
2023-03-18T11:33:14.370Z,48.10
2023-03-18T11:36:14.387Z,48.00
2023-03-18T11:38:43.098Z,48.00
2023-03-18T11:41:27.678Z,47.80
2023-03-18T11:44:16.175Z,47.50
2023-03-18T11:46:52.248Z,48.30
2023-03-18T11:49:25.914Z,48.10
2023-03-18T11:52:03.459Z,47.90
2023-03-18T11:54:49.189Z,48.30
2023-03-18T11:57:32.256Z,47.50
2023-03-18T12:00:45.672Z,47.90
2023-03-18T12:03:31.998Z,48.60
2023-03-18T12:06:08.594Z,48.20
2023-03-18T12:09:06.637Z,48.10
2023-03-18T12:11:59.331Z,48.10
2023-03-18T12:14:44.618Z,47.70
2023-03-18T12:17:30.502Z,47.50
2023-03-18T12:20:21.593Z,47.60
2023-03-18T12:23:39.280Z,47.60
2023-03-18T12:26:31.035Z,47.30
2023-03-18T12:29:28.455Z,47.20
2023-03-18T12:32:33.892Z,47.00
2023-03-18T12:35:25.998Z,46.90
2023-03-18T12:38:14.286Z,47.00
2023-03-18T12:40:44.305Z,46.30
2023-03-18T12:43:43.734Z,46.40
2023-03-18T12:46:31.841Z,46.50
2023-03-18T12:49:22.274Z,46.50
2023-03-18T12:52:11.002Z,46.60
2023-03-18T12:54:53.895Z,46.70
2023-03-18T12:57:55.010Z,46.90
2023-03-18T13:01:07.130Z,46.80
2023-03-18T13:03:40.876Z,46.90
2023-03-18T13:06:27.559Z,47.30
2023-03-18T13:09:13.381Z,47.20
2023-03-18T13:11:56.568Z,46.20
2023-03-18T13:14:46.243Z,46.40
2023-03-18T13:17:23.448Z,46.40
2023-03-18T13:19:51.108Z,46.70
2023-03-18T13:22:33.771Z,46.50
2023-03-18T13:25:13.684Z,46.60
2023-03-18T13:28:05.540Z,45.90
2023-03-18T13:30:51.585Z,45.70
2023-03-18T13:33:27.115Z,45.60
2023-03-18T13:36:06.586Z,45.60
2023-03-18T13:39:08.431Z,45.90
2023-03-18T13:42:02.138Z,45.80
2023-03-18T13:44:45.204Z,45.50
2023-03-18T13:47:18.759Z,45.70
2023-03-18T13:49:47.318Z,46.10
2023-03-18T13:52:42.761Z,45.80
2023-03-18T13:55:42.746Z,45.10
2023-03-18T13:58:19.260Z,46.00
2023-03-18T14:01:25.393Z,44.90
2023-03-18T14:03:55.516Z,45.80
2023-03-18T14:06:39.353Z,45.70
2023-03-18T14:09:23.353Z,46.00
2023-03-18T14:11:52.716Z,45.10
2023-03-18T14:15:24.413Z,45.70
2023-03-18T14:17:58.622Z,45.70
2023-03-18T14:20:36.845Z,44.80
2023-03-18T14:23:23.006Z,45.50
2023-03-18T14:25:59.363Z,45.50
2023-03-18T14:28:26.847Z,45.20
2023-03-18T14:31:14.687Z,45.00
2023-03-18T14:34:02.789Z,45.80
2023-03-18T14:36:55.449Z,45.10
2023-03-18T14:39:46.422Z,44.80
2023-03-18T14:42:27.178Z,45.00
2023-03-18T14:45:05.115Z,44.80
2023-03-18T14:47:44.369Z,44.70
2023-03-18T14:50:24.414Z,44.70
2023-03-18T14:53:15.168Z,45.20
2023-03-18T14:55:43.762Z,45.20
2023-03-18T14:58:21.264Z,45.00
2023-03-18T15:01:10.803Z,45.20
2023-03-18T15:03:42.368Z,45.20
2023-03-18T15:06:19.273Z,44.90
2023-03-18T15:08:56.652Z,44.70
2023-03-18T15:11:24.596Z,44.90
2023-03-18T15:13:54.807Z,44.90
2023-03-18T15:16:24.097Z,44.70
2023-03-18T15:18:53.821Z,44.80
2023-03-18T15:21:28.912Z,44.90
2023-03-18T15:24:01.201Z,44.60
2023-03-18T15:26:35.098Z,44.90
2023-03-18T15:29:26.246Z,45.10
2023-03-18T15:31:54.685Z,44.90
2023-03-18T15:34:27.706Z,44.40
2023-03-18T15:36:57.365Z,44.10
2023-03-18T15:39:27.483Z,44.50
2023-03-18T15:41:57.051Z,44.40
2023-03-18T15:44:29.787Z,44.50
2023-03-18T15:47:32.257Z,44.50
2023-03-18T15:50:09.459Z,44.80
2023-03-18T15:52:42.838Z,44.60
2023-03-18T15:55:47.466Z,44.80
2023-03-18T15:58:35.170Z,44.90
2023-03-18T16:01:02.719Z,44.60
2023-03-18T16:03:33.689Z,45.00
2023-03-18T16:06:02.102Z,45.30
2023-03-18T16:08:30.523Z,45.40
2023-03-18T16:11:02.055Z,45.50
2023-03-18T16:13:34.966Z,45.90
2023-03-18T16:16:03.525Z,46.10
2023-03-18T16:18:32.500Z,46.00
2023-03-18T16:21:00.471Z,46.10
2023-03-18T16:23:27.664Z,46.00
2023-03-18T16:25:56.152Z,46.10
2023-03-18T16:28:25.953Z,46.10
2023-03-18T16:30:55.721Z,46.40
2023-03-18T16:33:23.748Z,46.30
2023-03-18T16:35:59.189Z,46.30
2023-03-18T16:38:28.271Z,46.40
2023-03-18T16:40:57.322Z,46.40
2023-03-18T16:43:27.961Z,46.40
2023-03-18T16:46:05.978Z,46.60
2023-03-18T16:48:33.719Z,46.80
2023-03-18T16:51:02.878Z,46.90
2023-03-18T16:53:31.674Z,46.90
2023-03-18T16:56:16.388Z,46.90
2023-03-18T16:58:44.511Z,47.00
2023-03-18T17:01:16.477Z,47.10
2023-03-18T17:03:44.229Z,47.10
2023-03-18T17:06:13.214Z,47.20
2023-03-18T17:08:40.987Z,47.40
2023-03-18T17:11:15.517Z,47.30
2023-03-18T17:13:42.942Z,47.40
2023-03-18T17:16:18.054Z,47.40
2023-03-18T17:18:45.735Z,47.70
2023-03-18T17:21:13.318Z,47.80
2023-03-18T17:23:41.619Z,47.90
2023-03-18T17:26:14.781Z,48.10
2023-03-18T17:28:45.279Z,48.20
2023-03-18T17:31:13.655Z,48.10
2023-03-18T17:33:41.656Z,48.20
2023-03-18T17:36:09.473Z,48.40
2023-03-18T17:38:37.200Z,48.60
2023-03-18T17:41:12.435Z,49.10
2023-03-18T17:43:40.153Z,49.80
2023-03-18T17:46:07.886Z,49.50
2023-03-18T17:48:37.229Z,49.80
2023-03-18T17:51:07.721Z,50.20
2023-03-18T17:53:41.768Z,50.70
2023-03-18T17:56:13.887Z,50.80
2023-03-18T17:58:44.511Z,50.70
2023-03-18T18:01:18.780Z,50.90
2023-03-18T18:03:47.652Z,51.00
2023-03-18T18:06:23.955Z,50.90
2023-03-18T18:08:51.438Z,51.80
2023-03-18T18:11:33.146Z,52.30
2023-03-18T18:14:23.494Z,52.60
2023-03-18T18:16:52.191Z,52.90
2023-03-18T18:19:20.497Z,52.80
2023-03-18T18:21:49.067Z,53.00
2023-03-18T18:24:30.757Z,53.20
2023-03-18T18:26:58.253Z,53.60
2023-03-18T18:29:28.265Z,53.60
2023-03-18T18:31:55.589Z,53.90
2023-03-18T18:34:23.167Z,53.90
2023-03-18T18:36:51.113Z,54.00
2023-03-18T18:39:19.107Z,53.90
2023-03-18T18:41:46.532Z,54.10
2023-03-18T18:44:14.209Z,54.50
2023-03-18T18:46:41.695Z,55.00
2023-03-18T18:49:22.547Z,55.30
2023-03-18T18:51:53.585Z,55.80
2023-03-18T18:54:24.690Z,55.50
2023-03-18T18:56:52.451Z,55.70
2023-03-18T18:59:26.520Z,55.80
2023-03-18T19:01:55.397Z,55.90
2023-03-18T19:04:23.733Z,55.90
2023-03-18T19:06:52.322Z,55.90
2023-03-18T19:09:25.837Z,56.00
2023-03-18T19:11:55.964Z,56.10
2023-03-18T19:14:28.463Z,56.00
2023-03-18T19:16:58.551Z,56.40
2023-03-18T19:19:31.916Z,56.20
2023-03-18T19:21:59.156Z,56.30
2023-03-18T19:24:36.912Z,56.60
2023-03-18T19:27:09.822Z,56.90
2023-03-18T19:29:37.231Z,56.50
2023-03-18T19:32:06.137Z,56.90
2023-03-18T19:34:35.181Z,57.10
2023-03-18T19:37:07.803Z,57.50
2023-03-18T19:39:35.219Z,57.60
2023-03-18T19:42:02.592Z,57.60
2023-03-18T19:44:29.897Z,57.50
2023-03-18T19:46:59.137Z,57.40
2023-03-18T19:49:33.650Z,57.60
2023-03-18T19:52:02.615Z,57.70
2023-03-18T19:54:32.257Z,57.60
2023-03-18T19:57:06.833Z,57.70
2023-03-18T19:59:39.327Z,57.90
2023-03-18T20:02:30.371Z,57.90
2023-03-18T20:05:01.031Z,58.10
2023-03-18T20:07:30.880Z,58.00
2023-03-18T20:09:58.329Z,58.10
2023-03-18T20:12:38.509Z,58.10
2023-03-18T20:15:12.527Z,58.70
2023-03-18T20:17:41.872Z,58.70
2023-03-18T20:20:17.022Z,58.90
2023-03-18T20:22:53.550Z,59.10
2023-03-18T20:25:28.446Z,59.50
2023-03-18T20:27:57.712Z,59.50
2023-03-18T20:30:37.220Z,59.60
2023-03-18T20:33:05.695Z,60.10
2023-03-18T20:35:38.863Z,60.00
2023-03-18T20:38:21.106Z,60.20
2023-03-18T20:40:48.293Z,60.60
2023-03-18T20:43:17.365Z,60.20
2023-03-18T20:45:45.416Z,60.30
2023-03-18T20:48:13.259Z,60.20
2023-03-18T20:50:41.581Z,60.00
2023-03-18T20:53:16.891Z,59.80
2023-03-18T20:55:44.633Z,60.10
2023-03-18T20:58:16.595Z,59.60
2023-03-18T21:00:45.343Z,59.70
2023-03-18T21:03:25.648Z,59.70
2023-03-18T21:05:57.808Z,60.00
2023-03-18T21:08:26.495Z,59.70
2023-03-18T21:10:55.274Z,59.60
2023-03-18T21:13:27.084Z,59.60
2023-03-18T21:15:56.004Z,59.70
2023-03-18T21:18:23.440Z,59.50
2023-03-18T21:20:50.971Z,59.20
2023-03-18T21:23:26.905Z,59.30
2023-03-18T21:25:55.483Z,59.50
2023-03-18T21:28:25.443Z,59.30
2023-03-18T21:30:57.861Z,59.30
2023-03-18T21:33:33.578Z,59.40
2023-03-18T21:36:01.612Z,59.40
2023-03-18T21:38:34.902Z,59.10
2023-03-18T21:41:02.651Z,59.30
2023-03-18T21:43:34.214Z,59.20
2023-03-18T21:46:03.059Z,59.20
2023-03-18T21:48:31.519Z,59.20
2023-03-18T21:50:59.676Z,59.20
2023-03-18T21:53:28.001Z,59.30
2023-03-18T21:55:55.643Z,59.40
2023-03-18T21:58:25.895Z,59.50
2023-03-18T22:00:58.935Z,59.90
2023-03-18T22:03:29.405Z,60.30
2023-03-18T22:05:57.466Z,60.30
2023-03-18T22:08:25.449Z,60.20
2023-03-18T22:10:53.017Z,60.20
2023-03-18T22:13:25.651Z,60.20
2023-03-18T22:15:54.623Z,60.40
2023-03-18T22:18:22.486Z,60.30
2023-03-18T22:20:51.192Z,60.40
2023-03-18T22:23:29.796Z,60.50
2023-03-18T22:25:58.164Z,60.90
2023-03-18T22:28:27.918Z,60.80
2023-03-18T22:30:55.740Z,60.80
2023-03-18T22:33:29.927Z,61.00
2023-03-18T22:35:57.633Z,61.10
2023-03-18T22:38:26.081Z,61.00
2023-03-18T22:40:56.644Z,61.20
2023-03-18T22:43:35.753Z,61.40
2023-03-18T22:46:06.937Z,61.80
2023-03-18T22:48:34.439Z,61.60
2023-03-18T22:51:03.135Z,61.50
2023-03-18T22:53:34.345Z,61.40
2023-03-18T22:56:11.246Z,61.60
2023-03-18T22:58:38.824Z,61.60
2023-03-18T23:01:06.570Z,61.50
2023-03-18T23:03:36.727Z,61.60
2023-03-18T23:06:04.201Z,61.70
2023-03-18T23:08:32.164Z,61.70
2023-03-18T23:11:01.682Z,61.80
2023-03-18T23:13:35.816Z,62.00
2023-03-18T23:16:06.003Z,62.40
2023-03-18T23:18:33.487Z,62.50
2023-03-18T23:21:01.637Z,62.60
2023-03-18T23:23:30.311Z,62.70
2023-03-18T23:25:57.834Z,62.70
2023-03-18T23:28:25.871Z,62.70
2023-03-18T23:30:53.444Z,62.60
2023-03-18T23:33:21.038Z,62.50
2023-03-18T23:35:48.902Z,62.50
2023-03-18T23:38:16.490Z,62.40
2023-03-18T23:40:44.149Z,62.50
2023-03-18T23:43:11.700Z,62.80
2023-03-18T23:45:39.689Z,62.80
2023-03-18T23:48:07.225Z,62.90
2023-03-18T23:50:34.696Z,63.10
2023-03-18T23:53:02.248Z,63.10
2023-03-18T23:55:37.178Z,63.40
2023-03-18T23:58:04.895Z,63.60
